Time;durP1;ratioP1;P1;durP2;ratioP2;P2;SDS_P1;SDS_P2;PMS_P1;PMS_P2;Temp;Humidity;BMP_temperature;BMP_pressure;BME280_temperature;BME280_humidity;BME280_pressure;Samples;Min_cycle;Max_cycle;Signal;HPM_P1;HPM_P2
2021/12/20 00:00:54;;;;;;;2.20;1.73;;;;;;;-145.06;0.00;60892.56;4878580;28;20040;-87
2021/12/20 00:03:34;;;;;;;1.98;1.48;;;;;;;-145.06;0.00;60892.56;4882129;28;20123;-87
2021/12/20 00:06:13;;;;;;;2.22;1.67;;;;;;;-145.06;0.00;60892.56;4871725;28;20470;-87
2021/12/20 00:08:52;;;;;;;2.25;1.63;;;;;;;-145.06;0.00;60892.56;4872502;28;20029;-87
2021/12/20 00:11:31;;;;;;;2.72;1.65;;;;;;;-145.06;0.00;60892.56;4866321;28;20028;-88
2021/12/20 00:14:11;;;;;;;2.20;1.80;;;;;;;-145.06;0.00;60892.56;4870573;28;20022;-88
2021/12/20 00:16:50;;;;;;;2.58;1.80;;;;;;;-145.06;0.00;60892.56;4871057;28;20280;-87
2021/12/20 00:19:29;;;;;;;2.63;1.88;;;;;;;-145.06;0.00;60892.56;4872721;28;20118;-85
2021/12/20 00:22:08;;;;;;;2.22;1.85;;;;;;;-145.06;0.00;60892.56;4871297;28;20037;-87
2021/12/20 00:24:46;;;;;;;3.65;1.60;;;;;;;-145.06;0.00;60892.56;4874284;28;20033;-86
2021/12/20 00:27:25;;;;;;;2.38;1.60;;;;;;;-145.06;0.00;60892.56;4870777;28;20033;-88
2021/12/20 00:30:06;;;;;;;2.77;1.90;;;;;;;-145.06;0.00;60892.56;4871026;28;20044;-87
2021/12/20 00:32:45;;;;;;;2.50;1.83;;;;;;;-145.06;0.00;60892.56;4875622;28;20682;-87
2021/12/20 00:35:25;;;;;;;2.73;1.70;;;;;;;-145.06;0.00;60892.56;4856757;28;20029;-87
2021/12/20 00:41:02;;;;;;;1.52;1.38;;;;;;;-145.06;0.00;60892.56;4879339;28;19910;-86
2021/12/20 00:43:41;;;;;;;4.05;1.70;;;;;;;-145.06;0.00;60892.56;4869321;28;20033;-87
2021/12/20 00:46:20;;;;;;;2.03;1.83;;;;;;;-145.06;0.00;60892.56;4864443;28;20041;-87
2021/12/20 00:48:59;;;;;;;2.47;1.70;;;;;;;-145.06;0.00;60892.56;4859459;28;20033;-86
2021/12/20 00:51:38;;;;;;;1.93;1.53;;;;;;;-145.06;0.00;60892.56;4855888;28;20769;-86
2021/12/20 00:54:17;;;;;;;2.00;1.50;;;;;;;-145.06;0.00;60892.56;4857531;28;20037;-87
2021/12/20 00:56:56;;;;;;;1.97;1.53;;;;;;;-145.06;0.00;60892.56;4864887;28;20036;-86
2021/12/20 00:59:35;;;;;;;1.73;1.50;;;;;;;-145.06;0.00;60892.56;4862306;28;20284;-87
2021/12/20 01:02:16;;;;;;;2.50;1.48;;;;;;;-145.06;0.00;60892.56;4868841;28;20478;-86
2021/12/20 01:04:56;;;;;;;2.40;1.70;;;;;;;-145.06;0.00;60892.56;4863394;28;20033;-86
2021/12/20 01:07:35;;;;;;;2.07;1.60;;;;;;;-145.06;0.00;60892.56;4857404;28;20033;-86
2021/12/20 01:10:15;;;;;;;1.92;1.70;;;;;;;-145.06;0.00;60892.56;4842679;28;20124;-86
2021/12/20 01:12:55;;;;;;;;;;;;;;;-145.06;0.00;60892.56;4856937;28;20033;-86
2021/12/20 01:15:45;;;;;;;3.88;1.20;;;;;;;-145.06;0.00;60892.56;4853031;28;19916;-86
2021/12/20 01:18:23;;;;;;;2.10;1.73;;;;;;;-145.06;0.00;60892.56;4854358;28;20491;-86
2021/12/20 01:21:02;;;;;;;2.43;1.40;;;;;;;-145.06;0.00;60892.56;4849522;28;20029;-86
2021/12/20 01:23:41;;;;;;;2.78;2.00;;;;;;;-145.06;0.00;60892.56;4863146;28;20033;-86
2021/12/20 01:26:20;;;;;;;2.67;1.85;;;;;;;-145.06;0.00;60892.56;4857497;28;20033;-87
2021/12/20 01:28:59;;;;;;;2.55;1.75;;;;;;;-145.06;0.00;60892.56;4855706;28;20538;-86
2021/12/20 01:31:38;;;;;;;2.45;1.67;;;;;;;-145.06;0.00;60892.56;4857480;28;20029;-87
2021/12/20 01:34:17;;;;;;;2.58;1.73;;;;;;;-145.06;0.00;60892.56;4857566;28;20372;-86
2021/12/20 01:36:56;;;;;;;2.53;1.95;;;;;;;-145.06;0.00;60892.56;4860875;28;20045;-86
2021/12/20 01:39:35;;;;;;;2.47;1.50;;;;;;;-145.06;0.00;60892.56;4882347;28;20040;-86
2021/12/20 01:42:18;;;;;;;1.97;1.60;;;;;;;-145.06;0.00;60892.56;4858319;28;20264;-86
2021/12/20 01:44:58;;;;;;;3.00;1.80;;;;;;;-145.06;0.00;60892.56;4854382;28;20272;-86
2021/12/20 01:47:42;;;;;;;2.17;1.80;;;;;;;-145.06;0.00;60892.56;4848793;28;20028;-86
2021/12/20 01:50:36;;;;;;;2.42;1.73;;;;;;;-145.06;0.00;60892.56;4856712;28;20037;-87
2021/12/20 01:53:21;;;;;;;2.50;1.80;;;;;;;-145.06;0.00;60892.56;4856164;28;20038;-87
2021/12/20 01:56:00;;;;;;;2.60;1.63;;;;;;;-145.06;0.00;60892.56;4856998;28;20815;-86
2021/12/20 01:58:40;;;;;;;3.67;1.67;;;;;;;-145.06;0.00;60892.56;4854780;28;20026;-86
2021/12/20 02:01:19;;;;;;;2.37;1.77;;;;;;;-145.06;0.00;60892.56;4856478;28;20372;-85
2021/12/20 02:04:01;;;;;;;;;;;;;;;-145.06;0.00;60892.56;4857163;28;20061;-86
2021/12/20 02:06:45;;;;;;;2.33;1.42;;;;;;;-145.06;0.00;60892.56;4856910;28;19917;-87
2021/12/20 02:09:24;;;;;;;3.03;1.70;;;;;;;-145.06;0.00;60892.56;4856355;28;20104;-86
2021/12/20 02:12:03;;;;;;;2.30;1.73;;;;;;;-145.06;0.00;60892.56;4857027;28;20025;-86
2021/12/20 02:14:42;;;;;;;5.35;2.00;;;;;;;-145.06;0.00;60892.56;4855415;28;20052;-86
2021/12/20 02:17:21;;;;;;;3.43;2.00;;;;;;;-145.06;0.00;60892.56;4856348;28;20577;-87
2021/12/20 02:20:01;;;;;;;2.42;1.73;;;;;;;-145.06;0.00;60892.56;4855486;28;20861;-86
2021/12/20 02:22:40;;;;;;;3.28;2.17;;;;;;;-145.06;0.00;60892.56;4853976;28;20021;-86
2021/12/20 02:25:19;;;;;;;3.87;1.90;;;;;;;-145.06;0.00;60892.56;4856815;28;20072;-86
2021/12/20 02:28:08;;;;;;;2.67;1.70;;;;;;;-145.06;0.00;60892.56;4857086;28;20029;-86
2021/12/20 02:36:54;;;;;;;3.42;1.40;;;;;;;-145.06;0.00;60892.56;4856494;28;20902;-85
2021/12/20 02:39:33;;;;;;;2.17;1.70;;;;;;;-145.06;0.00;60892.56;4849602;28;20635;-85
2021/12/20 02:42:17;;;;;;;2.20;1.85;;;;;;;187.52;0.00;60892.56;4855816;28;20033;-87
2021/12/20 02:45:11;;;;;;;2.10;1.40;;;;;;;-145.06;0.00;60892.56;4856117;28;20041;-87
2021/12/20 02:47:50;;;;;;;2.10;1.50;;;;;;;-145.06;0.00;60892.56;4862614;28;20534;-87
2021/12/20 02:50:29;;;;;;;2.20;1.60;;;;;;;-145.06;0.00;60892.56;4868703;28;20112;-86
2021/12/20 02:53:08;;;;;;;2.70;1.70;;;;;;;-145.06;0.00;60892.56;4872672;28;20276;-86
2021/12/20 02:55:47;;;;;;;2.80;1.60;;;;;;;-145.06;0.00;60892.56;4860424;28;20106;-87
2021/12/20 02:58:26;;;;;;;2.58;1.73;;;;;;;-145.06;0.00;60892.56;4855765;28;20029;-87
2021/12/20 03:01:05;;;;;;;2.20;1.60;;;;;;;-145.06;0.00;60892.56;4859505;28;20120;-85
2021/12/20 03:03:45;;;;;;;2.70;1.55;;;;;;;-145.06;0.00;60892.56;4857953;28;20021;-87
2021/12/20 03:06:29;;;;;;;2.28;1.35;;;;;;;-145.06;0.00;60892.56;4858306;28;20077;-87
2021/12/20 03:09:14;;;;;;;2.72;1.83;;;;;;;-145.06;0.00;60892.56;4857647;28;20045;-87
2021/12/20 03:11:55;;;;;;;2.47;1.60;;;;;;;-145.06;0.00;60892.56;4860773;28;20041;-86
2021/12/20 03:14:40;;;;;;;3.75;1.92;;;;;;;-145.06;0.00;60892.56;4837482;28;20570;-87
2021/12/20 03:17:19;;;;;;;2.88;1.52;;;;;;;-145.06;0.00;60892.56;4865098;28;20033;-86
2021/12/20 03:19:58;;;;;;;3.67;1.67;;;;;;;-145.06;0.00;60892.56;4874339;28;20029;-86
2021/12/20 03:22:37;;;;;;;7.97;1.97;;;;;;;-145.06;0.00;60892.56;4861760;28;20037;-86
2021/12/20 03:25:17;;;;;;;2.63;1.77;;;;;;;-145.06;0.00;60892.56;4870555;28;20037;-86
2021/12/20 03:27:57;;;;;;;2.90;1.52;;;;;;;-145.06;0.00;60892.56;4855626;28;20072;-86
2021/12/20 03:30:36;;;;;;;3.00;1.57;;;;;;;-145.06;0.00;60892.56;4860026;28;20022;-86
2021/12/20 03:33:15;;;;;;;3.25;1.70;;;;;;;-145.06;0.00;60892.56;4854366;28;20116;-87
2021/12/20 03:35:53;;;;;;;3.88;1.80;;;;;;;-145.06;0.00;60892.56;4853994;28;20033;-86
2021/12/20 03:38:32;;;;;;;2.50;1.70;;;;;;;-145.06;0.00;60892.56;4857005;28;20034;-86
2021/12/20 03:41:11;;;;;;;2.70;1.63;;;;;;;-145.06;0.00;60892.56;4858295;28;20037;-86
2021/12/20 03:43:51;;;;;;;3.53;1.70;;;;;;;-145.06;0.00;60892.56;4857878;28;20916;-86
2021/12/20 03:46:30;;;;;;;2.20;1.63;;;;;;;-145.06;0.00;60892.56;4861164;28;20037;-86
2021/12/20 03:49:09;;;;;;;2.83;1.90;;;;;;;-145.06;0.00;60892.56;4853523;28;20053;-87
2021/12/20 03:51:47;;;;;;;2.58;1.73;;;;;;;-145.06;0.00;60892.56;4855118;28;20110;-86
2021/12/20 03:54:27;;;;;;;3.80;1.63;;;;;;;-145.06;0.00;60892.56;4859784;28;21242;-87
2021/12/20 03:57:06;;;;;;;2.72;1.45;;;;;;;-145.06;0.00;60892.56;4854914;28;20471;-86
2021/12/20 03:59:47;;;;;;;2.75;1.85;;;;;;;-145.06;0.00;60892.56;4859739;28;20053;-87
2021/12/20 04:02:28;;;;;;;2.40;1.52;;;;;;;-145.06;0.00;60892.56;4854937;28;20216;-86
2021/12/20 04:05:08;;;;;;;4.28;1.60;;;;;;;-145.06;0.00;60892.56;4860085;28;21070;-86
2021/12/20 04:07:46;;;;;;;;;;;;;;;-145.06;0.00;60892.56;4849171;28;20384;-86
2021/12/20 04:10:26;;;;;;;2.23;1.73;;;;;;;-145.06;0.00;60892.56;4858201;28;19944;-86
2021/12/20 04:13:05;;;;;;;2.83;1.70;;;;;;;-145.06;0.00;60892.56;4853319;28;20622;-86
2021/12/20 04:15:43;;;;;;;2.28;1.40;;;;;;;-145.06;0.00;60892.56;4858559;28;20283;-86
2021/12/20 04:18:23;;;;;;;3.70;1.52;;;;;;;-145.06;0.00;60892.56;4860016;28;20112;-86
2021/12/20 04:21:02;;;;;;;;;;;;;;;-145.06;0.00;60892.56;4864606;28;20033;-87
2021/12/20 04:23:41;;;;;;;3.78;1.60;;;;;;;-145.06;0.00;60892.56;4860730;28;19960;-87
2021/12/20 04:26:20;;;;;;;2.30;1.42;;;;;;;21.08;0.00;60892.56;4871433;28;20064;-86
2021/12/20 04:28:59;;;;;;;2.87;1.50;;;;;;;-145.06;0.00;60892.56;4859405;28;20033;-86
2021/12/20 04:31:38;;;;;;;2.03;1.53;;;;;;;-145.06;0.00;60892.56;4864402;28;20032;-87
2021/12/20 04:34:18;;;;;;;2.10;1.70;;;;;;;-145.06;0.00;60892.56;4857456;28;20025;-86
2021/12/20 04:36:57;;;;;;;1.57;1.37;;;;;;;-145.06;0.00;60892.56;4863599;28;20132;-86
2021/12/20 04:39:36;;;;;;;1.95;1.35;;;;;;;-145.06;0.00;60892.56;4853973;28;20300;-87
2021/12/20 04:42:15;;;;;;;4.10;1.25;;;;;;;-145.06;0.00;60892.56;4860520;28;20038;-86
2021/12/20 04:44:54;;;;;;;2.30;1.35;;;;;;;-145.06;0.00;60892.56;4864010;28;20025;-87
2021/12/20 04:47:33;;;;;;;1.80;1.30;;;;;;;-145.06;0.00;60892.56;4868642;28;20041;-86
2021/12/20 04:50:13;;;;;;;3.67;1.93;;;;;;;-145.06;0.00;60892.56;4859414;28;20112;-86
2021/12/20 04:52:54;;;;;;;4.57;1.67;;;;;;;-145.06;0.00;60892.56;4869423;28;20025;-87
2021/12/20 04:55:34;;;;;;;2.30;1.38;;;;;;;-145.06;0.00;60892.56;4867355;28;20053;-87
2021/12/20 04:58:13;;;;;;;2.25;1.67;;;;;;;-145.06;0.00;60892.56;4861227;28;20029;-87
2021/12/20 05:00:52;;;;;;;2.42;1.40;;;;;;;-145.06;0.00;60892.56;4864551;28;20037;-86
2021/12/20 05:03:31;;;;;;;3.87;1.60;;;;;;;-145.06;0.00;60892.56;4854538;28;20029;-86
2021/12/20 05:06:10;;;;;;;3.40;1.70;;;;;;;-145.06;0.00;60892.56;4863732;28;20348;-87
2021/12/20 05:08:50;;;;;;;3.10;1.37;;;;;;;-145.06;0.00;60892.56;4847023;28;20045;-87
2021/12/20 05:11:30;;;;;;;3.70;1.60;;;;;;;-145.06;0.00;60892.56;4857909;28;20108;-87
2021/12/20 05:14:09;;;;;;;2.45;1.40;;;;;;;-145.06;0.00;60892.56;4865756;28;20482;-87
2021/12/20 05:16:48;;;;;;;2.22;1.42;;;;;;;-145.06;0.00;60892.56;4858857;28;20108;-87
2021/12/20 05:19:27;;;;;;;1.20;1.10;;;;;;;-145.06;0.00;60892.56;4863931;28;20040;-86
2021/12/20 05:22:06;;;;;;;2.45;1.40;;;;;;;-145.06;0.00;60892.56;4856845;28;20029;-88
2021/12/20 05:24:45;;;;;;;2.30;1.30;;;;;;;-145.06;0.00;60892.56;4861265;28;20364;-88
2021/12/20 05:27:24;;;;;;;2.47;1.40;;;;;;;-145.06;0.00;60892.56;4865703;28;20030;-86
2021/12/20 05:30:05;;;;;;;3.53;1.53;;;;;;;-145.06;0.00;60892.56;4856131;28;20376;-86
2021/12/20 05:32:44;;;;;;;1.90;1.20;;;;;;;-145.06;0.00;60892.56;4857259;28;20036;-86
2021/12/20 05:35:24;;;;;;;2.10;1.17;;;;;;;7.37;0.00;60892.56;4856843;28;20064;-86
2021/12/20 05:38:03;;;;;;;1.95;1.08;;;;;;;-145.06;0.00;60892.56;4856297;28;20495;-85
2021/12/20 05:40:42;;;;;;;2.08;0.80;;;;;;;-145.06;0.00;60892.56;4857107;28;20052;-87
2021/12/20 05:43:21;;;;;;;2.05;0.90;;;;;;;-145.06;0.00;60892.56;4859982;28;20041;-86
2021/12/20 05:46:00;;;;;;;2.67;1.10;;;;;;;-145.06;0.00;60892.56;4856503;28;20060;-84
2021/12/20 05:48:39;;;;;;;1.47;0.93;;;;;;;-145.06;0.00;60892.56;4856979;28;20611;-85
2021/12/20 05:51:18;;;;;;;1.50;1.10;;;;;;;-145.06;0.00;60892.56;4850002;28;20029;-85
2021/12/20 05:53:59;;;;;;;1.90;1.23;;;;;;;-145.06;0.00;60892.56;4849824;28;20042;-85
2021/12/20 05:56:38;;;;;;;1.30;1.08;;;;;;;-145.06;0.00;60892.56;4851416;28;20025;-86
2021/12/20 05:59:17;;;;;;;2.43;1.20;;;;;;;-145.06;0.00;60892.56;4852240;28;20025;-85
2021/12/20 06:01:56;;;;;;;1.27;0.98;;;;;;;-145.06;0.00;60892.56;4850325;28;20038;-86
2021/12/20 06:04:35;;;;;;;2.27;1.23;;;;;;;-145.06;0.00;60892.56;4854647;28;20033;-86
2021/12/20 06:07:14;;;;;;;2.33;1.20;;;;;;;-145.06;0.00;60892.56;4852214;28;20041;-86
2021/12/20 06:09:53;;;;;;;1.88;1.30;;;;;;;-145.06;0.00;60892.56;4858113;28;20116;-86
2021/12/20 06:12:32;;;;;;;2.20;1.40;;;;;;;-145.06;0.00;60892.56;4854690;28;20037;-84
2021/12/20 06:15:12;;;;;;;1.38;0.98;;;;;;;-145.06;0.00;60892.56;4856629;28;20029;-86
2021/12/20 06:17:51;;;;;;;1.30;0.98;;;;;;;-145.06;0.00;60892.56;4853410;28;20438;-87
2021/12/20 06:20:30;;;;;;;2.13;1.20;;;;;;;-145.06;0.00;60892.56;4857373;28;20072;-86
2021/12/20 06:23:09;;;;;;;1.38;1.00;;;;;;;-145.06;0.00;60892.56;4861136;28;20069;-86
2021/12/20 06:25:48;;;;;;;1.77;1.30;;;;;;;-145.06;0.00;60892.56;4851457;28;20061;-86
2021/12/20 06:28:28;;;;;;;4.22;1.70;;;;;;;-145.06;0.00;60892.56;4849795;28;20064;-84
2021/12/20 06:31:07;;;;;;;;;;;;;;;-145.06;0.00;60892.56;4849562;28;20042;-85
2021/12/20 06:33:46;;;;;;;1.83;1.27;;;;;;;-145.06;0.00;60892.56;4851359;28;20382;-86
2021/12/20 06:36:28;;;;;;;1.33;1.17;;;;;;;-145.06;0.00;60892.56;4840723;28;20041;-86
2021/12/20 06:39:07;;;;;;;4.50;1.55;;;;;;;-145.06;0.00;60892.56;4851053;28;20065;-86
2021/12/20 06:41:46;;;;;;;1.93;1.27;;;;;;;-145.06;0.00;60892.56;4852520;28;20041;-85
2021/12/20 06:44:25;;;;;;;2.37;1.23;;;;;;;-145.06;0.00;60892.56;4850964;28;20025;-86
2021/12/20 06:47:05;;;;;;;3.47;1.38;;;;;;;-145.06;0.00;60892.56;4853316;28;20033;-86
2021/12/20 06:49:44;;;;;;;1.90;1.20;;;;;;;-145.06;0.00;60892.56;4853838;28;20045;-85
2021/12/20 06:52:23;;;;;;;3.47;1.40;;;;;;;-145.06;0.00;60892.56;4862852;28;20037;-87
2021/12/20 06:55:03;;;;;;;1.50;1.20;;;;;;;-145.06;0.00;60892.56;4843777;28;20029;-86
2021/12/20 06:57:42;;;;;;;2.90;1.27;;;;;;;-145.06;0.00;60892.56;4845494;28;20033;-86
2021/12/20 07:00:23;;;;;;;2.63;1.27;;;;;;;-145.06;0.00;60892.56;4851399;28;20534;-86
2021/12/20 07:03:02;;;;;;;2.15;1.00;;;;;;;-145.06;0.00;60892.56;4853540;28;20033;-87
2021/12/20 07:05:41;;;;;;;3.30;1.23;;;;;;;-145.06;0.00;60892.56;4852648;28;20479;-86
2021/12/20 07:08:20;;;;;;;1.92;1.00;;;;;;;-145.06;0.00;60892.56;4854475;28;20041;-86
2021/12/20 07:10:59;;;;;;;2.60;1.10;;;;;;;-145.06;0.00;60892.56;4856534;28;20033;-86
2021/12/20 07:13:38;;;;;;;3.03;0.95;;;;;;;-145.06;0.00;60892.56;4850656;28;20069;-86
2021/12/20 07:16:17;;;;;;;2.40;1.05;;;;;;;-145.06;0.00;60892.56;4852291;28;20029;-86
2021/12/20 07:18:56;;;;;;;1.63;1.00;;;;;;;-145.06;0.00;60892.56;4855108;28;20033;-86
2021/12/20 07:21:35;;;;;;;1.23;0.93;;;;;;;-145.06;0.00;60892.56;4855097;28;20037;-87
2021/12/20 07:24:14;;;;;;;1.33;0.70;;;;;;;-145.06;0.00;60892.56;4855251;28;21066;-86
2021/12/20 07:26:53;;;;;;;2.37;0.97;;;;;;;-145.06;0.00;60892.56;4850504;28;20616;-87
2021/12/20 07:29:32;;;;;;;3.30;0.80;;;;;;;-145.06;0.00;60892.56;4857027;28;20025;-86
2021/12/20 07:32:11;;;;;;;1.83;1.00;;;;;;;7.44;0.00;60892.56;4858113;28;20599;-86
2021/12/20 07:34:51;;;;;;;2.60;0.93;;;;;;;7.04;0.00;60892.56;4865131;28;20387;-85
2021/12/20 07:37:30;;;;;;;2.73;1.00;;;;;;;-145.06;0.00;60892.56;4849688;28;20037;-85
2021/12/20 07:40:09;;;;;;;2.03;0.80;;;;;;;-145.06;0.00;60892.56;4856379;28;20368;-85
2021/12/20 07:42:48;;;;;;;;;;;;;;;-145.06;0.00;60892.56;4853486;28;20025;-87
2021/12/20 07:45:28;;;;;;;1.75;0.82;;;;;;;-145.06;0.00;60892.56;4855682;28;19913;-86
2021/12/20 07:48:07;;;;;;;1.38;0.85;;;;;;;-145.06;0.00;60892.56;4854566;28;20033;-85
2021/12/20 07:50:47;;;;;;;1.92;0.68;;;;;;;-145.06;0.00;60892.56;4855632;28;20037;-86
2021/12/20 07:53:26;;;;;;;;;;;;;;;-145.06;0.00;60892.56;4853334;28;20053;-86
2021/12/20 07:56:05;;;;;;;1.92;0.80;;;;;;;-145.06;0.00;60892.56;4852144;28;19925;-84
2021/12/20 07:58:44;;;;;;;1.23;0.80;;;;;;;-145.06;0.00;60892.56;4865874;28;20029;-86
2021/12/20 08:01:23;;;;;;;2.05;0.90;;;;;;;-145.06;0.00;60892.56;4858249;28;20083;-86
2021/12/20 08:04:03;;;;;;;3.70;1.00;;;;;;;-145.06;0.00;60892.56;4871611;28;20037;-86
2021/12/20 08:06:43;;;;;;;2.13;0.90;;;;;;;10.68;0.00;60892.56;4876225;28;20292;-85
2021/12/20 08:09:22;;;;;;;1.70;1.05;;;;;;;-145.06;0.00;60892.56;4880411;28;20045;-86
2021/12/20 08:12:00;;;;;;;2.83;1.03;;;;;;;-145.06;0.00;60892.56;4861615;28;20037;-87
2021/12/20 08:14:40;;;;;;;2.03;1.10;;;;;;;-145.06;0.00;60892.56;4865584;28;20037;-86
2021/12/20 08:17:19;;;;;;;1.58;0.95;;;;;;;-145.06;0.00;60892.56;4867100;28;20777;-87
2021/12/20 08:19:58;;;;;;;1.23;0.83;;;;;;;-145.06;0.00;60892.56;4863737;28;20021;-86
2021/12/20 08:22:39;;;;;;;2.05;1.10;;;;;;;-145.06;0.00;60892.56;4863673;28;20077;-86
2021/12/20 08:25:18;;;;;;;2.45;0.80;;;;;;;-145.06;0.00;60892.56;4867378;28;20052;-86
2021/12/20 08:27:58;;;;;;;;;;;;;;;-145.06;0.00;60892.56;4865364;28;20029;-86
2021/12/20 08:30:37;;;;;;;2.35;0.90;;;;;;;-145.06;0.00;60892.56;4858804;28;19913;-86
2021/12/20 08:33:15;;;;;;;2.05;1.00;;;;;;;-145.06;0.00;60892.56;4856640;28;20029;-86
2021/12/20 08:35:54;;;;;;;1.65;0.88;;;;;;;-145.06;0.00;60892.56;4868655;28;20029;-86
2021/12/20 08:38:33;;;;;;;1.40;0.95;;;;;;;-145.06;0.00;60892.56;4844978;28;20033;-86
2021/12/20 08:41:13;;;;;;;3.63;1.10;;;;;;;-145.06;0.00;60892.56;4863669;28;20478;-87
2021/12/20 08:43:52;;;;;;;3.83;1.02;;;;;;;-145.06;0.00;60892.56;4861262;28;20275;-87
2021/12/20 08:46:31;;;;;;;2.58;1.13;;;;;;;-145.06;0.00;60892.56;4861663;28;20025;-86
2021/12/20 08:49:10;;;;;;;1.67;0.90;;;;;;;-145.06;0.00;60892.56;4865909;28;20141;-86
2021/12/20 08:51:48;;;;;;;3.58;0.90;;;;;;;-145.06;0.00;60892.56;4849593;28;20021;-86
2021/12/20 08:54:29;;;;;;;2.43;1.30;;;;;;;-145.06;0.00;60892.56;4857560;28;20474;-85
2021/12/20 08:57:08;;;;;;;1.70;0.90;;;;;;;-145.06;0.00;60892.56;4858720;28;20029;-86
2021/12/20 08:59:47;;;;;;;3.63;1.00;;;;;;;-145.06;0.00;60892.56;4857682;28;20431;-85
2021/12/20 09:02:26;;;;;;;4.82;1.08;;;;;;;-145.06;0.00;60892.56;4864371;28;20065;-86
2021/12/20 09:05:06;;;;;;;4.00;1.38;;;;;;;-145.06;0.00;60892.56;4868198;28;20029;-86
2021/12/20 09:07:45;;;;;;;3.67;1.42;;;;;;;-145.06;0.00;60892.56;4858499;28;20065;-86
2021/12/20 09:10:24;;;;;;;3.50;1.58;;;;;;;-145.06;0.00;60892.56;4850461;28;20021;-86
2021/12/20 09:13:05;;;;;;;6.33;1.90;;;;;;;-145.06;0.00;60892.56;4853087;28;20033;-86
2021/12/20 09:15:44;;;;;;;1.92;1.20;;;;;;;-145.06;0.00;60892.56;4855575;28;20104;-87
2021/12/20 09:18:24;;;;;;;4.07;1.40;;;;;;;-145.06;0.00;60892.56;4842191;28;20033;-87
2021/12/20 09:21:02;;;;;;;3.35;1.13;;;;;;;-145.06;0.00;60892.56;4846060;28;20030;-85
2021/12/20 09:23:43;;;;;;;2.35;1.10;;;;;;;-145.06;0.00;60892.56;4847489;28;20021;-86
2021/12/20 09:26:22;;;;;;;2.65;1.00;;;;;;;-145.06;0.00;60892.56;4856788;28;20104;-86
2021/12/20 09:29:01;;;;;;;2.28;1.20;;;;;;;-145.06;0.00;60892.56;4855631;28;20041;-87
2021/12/20 09:31:44;;;;;;;4.15;1.02;;;;;;;-145.06;0.00;60892.56;4862379;28;20029;-86
2021/12/20 09:34:23;;;;;;;5.05;1.17;;;;;;;-145.06;0.00;60892.56;4858883;28;20029;-87
2021/12/20 09:37:06;;;;;;;6.13;1.30;;;;;;;-145.06;0.00;60892.56;4856874;28;20061;-85
2021/12/20 09:39:50;;;;;;;1.83;0.93;;;;;;;-145.06;0.00;60892.56;4854575;28;20376;-86
2021/12/20 09:42:32;;;;;;;4.30;1.48;;;;;;;-145.06;0.00;60892.56;4856863;28;20057;-86
2021/12/20 09:45:12;;;;;;;3.90;1.35;;;;;;;-145.06;0.00;60892.56;4854791;28;20483;-87
2021/12/20 09:47:51;;;;;;;2.38;0.98;;;;;;;187.52;0.00;60892.56;4855898;28;20021;-86
2021/12/20 09:50:32;;;;;;;4.75;1.33;;;;;;;-145.06;0.00;60892.56;4854248;28;20041;-86
2021/12/20 09:53:11;;;;;;;5.03;1.20;;;;;;;-145.06;0.00;60892.56;4854484;28;20471;-86
2021/12/20 09:55:51;;;;;;;2.80;0.90;;;;;;;-145.06;0.00;60892.56;4857054;28;20029;-86
2021/12/20 09:58:35;;;;;;;3.58;1.10;;;;;;;187.52;0.00;60892.56;4867534;28;20025;-86
2021/12/20 10:01:13;;;;;;;2.45;0.80;;;;;;;-145.06;0.00;60892.56;4876437;28;20036;-86
2021/12/20 10:03:53;;;;;;;4.25;1.38;;;;;;;-145.06;0.00;60892.56;4860927;28;20061;-86
2021/12/20 10:06:33;;;;;;;1.42;0.75;;;;;;;-145.06;0.00;60892.56;4850837;28;20034;-87
2021/12/20 10:09:15;;;;;;;4.47;1.00;;;;;;;7.55;0.00;60892.56;4856447;28;20041;-87
2021/12/20 10:12:13;;;;;;;5.03;1.15;;;;;;;-145.06;0.00;60892.56;4851476;28;20368;-86
2021/12/20 10:15:06;;;;;;;2.97;1.00;;;;;;;-145.06;0.00;60892.56;4843791;28;20379;-87
2021/12/20 10:17:55;;;;;;;4.07;1.08;;;;;;;-145.06;0.00;60892.56;4857969;28;20041;-87
2021/12/20 10:20:36;;;;;;;2.45;1.00;;;;;;;-145.06;0.00;60892.56;4855968;28;20033;-87
2021/12/20 10:23:19;;;;;;;2.75;1.20;;;;;;;-145.06;0.00;60892.56;4856430;28;20041;-87
2021/12/20 10:26:22;;;;;;;2.88;1.20;;;;;;;-145.06;0.00;60892.56;4853901;28;20030;-86
2021/12/20 10:29:01;;;;;;;2.60;1.10;;;;;;;-145.06;0.00;60892.56;4861638;28;20041;-86
2021/12/20 10:31:40;;;;;;;2.97;1.00;;;;;;;-145.06;0.00;60892.56;4858279;28;20025;-86
2021/12/20 10:34:31;;;;;;;2.63;1.30;;;;;;;-145.06;0.00;60892.56;4856579;28;20041;-86
2021/12/20 10:37:10;;;;;;;2.17;0.93;;;;;;;-145.06;0.00;60892.56;4838847;28;20554;-87
2021/12/20 10:40:01;;;;;;;2.25;1.10;;;;;;;-145.06;0.00;60892.56;4857962;28;20025;-86
2021/12/20 10:42:40;;;;;;;2.65;0.95;;;;;;;-145.06;0.00;60892.56;4852441;28;20041;-87
2021/12/20 10:45:20;;;;;;;2.42;1.10;;;;;;;-145.06;0.00;60892.56;4856009;28;20479;-85
2021/12/20 10:48:07;;;;;;;;;;;;;;;-145.06;0.00;60892.56;4856554;28;20045;-87
2021/12/20 10:50:47;;;;;;;3.35;1.10;;;;;;;-145.06;0.00;60892.56;4844024;28;19909;-87
2021/12/20 10:53:27;;;;;;;2.67;1.20;;;;;;;-145.06;0.00;60892.56;4857022;28;20037;-86
2021/12/20 10:56:07;;;;;;;5.80;1.38;;;;;;;-145.06;0.00;60892.56;4856271;28;20033;-86
2021/12/20 10:58:46;;;;;;;4.70;1.67;;;;;;;-145.06;0.00;60892.56;4860308;28;20033;-87
2021/12/20 11:02:01;;;;;;;3.97;2.00;;;;;;;-145.06;0.00;60892.56;4856171;28;20029;-86
2021/12/20 11:04:46;;;;;;;4.90;1.70;;;;;;;-145.06;0.00;60892.56;4855119;28;20252;-86
2021/12/20 11:10:10;;;;;;;2.70;1.42;;;;;;;-145.06;0.00;60892.56;4862193;28;19909;-88
2021/12/20 11:12:49;;;;;;;4.13;1.50;;;;;;;-145.06;0.00;60892.56;4855532;28;20025;-87
2021/12/20 11:15:28;;;;;;;3.60;1.90;;;;;;;-145.06;0.00;60892.56;4856187;28;20284;-87
2021/12/20 11:18:15;;;;;;;5.80;1.52;;;;;;;-145.06;0.00;60892.56;4858387;28;20750;-86
2021/12/20 11:21:11;;;;;;;6.60;2.10;;;;;;;-145.06;0.00;60892.56;4861353;28;20045;-86
2021/12/20 11:23:50;;;;;;;5.82;2.30;;;;;;;-145.06;0.00;60892.56;4864584;28;20033;-87
2021/12/20 11:26:29;;;;;;;3.90;2.00;;;;;;;-145.06;0.00;60892.56;4868959;28;20029;-87
2021/12/20 11:29:09;;;;;;;3.38;1.60;;;;;;;187.52;0.00;60892.56;4871453;28;20029;-86
2021/12/20 11:31:50;;;;;;;4.22;1.75;;;;;;;-145.06;0.00;60892.56;4857175;28;20171;-87
2021/12/20 11:34:30;;;;;;;47.47;21.55;;;;;;;-145.06;0.00;60892.56;4836150;28;20038;-87
2021/12/20 11:37:11;;;;;;;40.35;18.30;;;;;;;-145.06;0.00;60892.56;4855498;28;20034;-87
2021/12/20 11:39:51;;;;;;;32.83;14.25;;;;;;;-145.06;0.00;60892.56;4854126;28;20104;-87
2021/12/20 11:42:30;;;;;;;26.75;11.45;;;;;;;-145.06;0.00;60892.56;4854005;28;20037;-87
2021/12/20 11:45:14;;;;;;;22.92;10.05;;;;;;;-145.06;0.00;60892.56;4853564;28;20061;-86
2021/12/20 11:48:13;;;;;;;25.20;12.43;;;;;;;-145.06;0.00;60892.56;4869693;28;20040;-87
2021/12/20 11:50:56;;;;;;;20.67;10.07;;;;;;;7.72;0.00;60892.56;4852637;28;20025;-87
2021/12/20 11:53:37;;;;;;;17.02;8.05;;;;;;;-145.06;0.00;60892.56;4855150;28;20359;-86
2021/12/20 11:56:16;;;;;;;11.70;6.15;;;;;;;-145.06;0.00;60892.56;4854701;28;20603;-87
2021/12/20 11:58:55;;;;;;;11.70;5.23;;;;;;;-145.06;0.00;60892.56;4859944;28;20033;-87
2021/12/20 12:01:34;;;;;;;11.50;5.80;;;;;;;-145.06;0.00;60892.56;4864115;28;20104;-87
2021/12/20 12:04:13;;;;;;;11.20;5.93;;;;;;;-145.06;0.00;60892.56;4864403;28;20777;-86
2021/12/20 12:07:22;;;;;;;9.73;5.07;;;;;;;7.79;0.00;60892.56;4860818;28;20479;-87
2021/12/20 12:10:17;;;;;;;7.45;3.60;;;;;;;-145.06;0.00;60892.56;4863684;28;20352;-87
2021/12/20 12:13:01;;;;;;;7.38;3.00;;;;;;;-145.06;0.00;60892.56;4860345;28;20033;-87
2021/12/20 12:15:59;;;;;;;5.15;2.70;;;;;;;-145.06;0.00;60892.56;4854711;28;20029;-87
2021/12/20 12:18:59;;;;;;;5.53;2.50;;;;;;;-145.06;0.00;60892.56;4848690;28;20030;-87
2021/12/20 12:21:40;;;;;;;5.38;2.47;;;;;;;-145.06;0.00;60892.56;4837546;28;20061;-87
2021/12/20 12:24:55;;;;;;;5.18;1.58;;;;;;;-145.06;0.00;60892.56;4836031;28;20073;-87
2021/12/20 12:27:36;;;;;;;2.92;1.33;;;;;;;-145.06;0.00;60892.56;4802199;28;20034;-88
2021/12/20 12:30:28;;;;;;;4.35;1.45;;;;;;;8.03;0.00;60892.56;4861352;28;20041;-86
2021/12/20 12:33:13;;;;;;;5.15;1.75;;;;;;;8.01;0.00;60892.56;4864027;28;20037;-87
2021/12/20 12:35:53;;;;;;;3.70;1.38;;;;;;;-145.06;0.00;60892.56;4857763;28;20037;-88
2021/12/20 12:38:35;;;;;;;;;;;;;;;7.98;0.00;60892.56;4870206;28;20463;-88
2021/12/20 12:41:21;;;;;;;3.20;1.15;;;;;;;-145.06;0.00;60892.56;4862614;28;20637;-87
2021/12/20 12:44:06;;;;;;;2.08;1.00;;;;;;;-145.06;0.00;60892.56;4855492;28;20049;-86